Terminal Aerodrome Forecast
Issued by NWS North Platte, NE

Home | Current Version | Previous Version | Text Only | Print | Product List | Glossary On
Versions: 1 2 3 4 5 6 7 8 9 10 11 12 13 14 15 16 17 18 19 20
000
FTUS43 KLBF 231720
TAFLBF
TAF
KLBF 231720Z 2318/2418 05011KT 3SM BR OVC003
     FM231900 12007KT 4SM BR VCTS OVC005CB
     FM232100 05008KT 6SM SHRA VCTS OVC007CB
     FM240000 06008KT P6SM -TSRA OVC007CB
      TEMPO 2400/2404 2SM TSRA
     FM240600 13008KT 3SM SHRA OVC010
     FM240900 12008KT 5SM SHRA OVC008
     FM241500 05007KT 5SM SHRA OVC008
     FM241700 05008KT P6SM SHRA OVC010=

USA.gov is the U.S. government's official web portal to all federal, state and local government web resources and services.